sensor_id;sensor_type;location;lat;lon;timestamp;P1;durP1;ratioP1;P2;durP2;ratioP2
33459;SDS011;19795;53.160;6.612;2023-02-18T07:35:33;24.73;;;16.15;;
33459;SDS011;19795;53.160;6.612;2023-02-18T07:41:17;22.20;;;14.75;;
33459;SDS011;19795;53.160;6.612;2023-02-18T07:43:46;23.73;;;14.35;;
33459;SDS011;19795;53.160;6.612;2023-02-18T07:46:15;20.90;;;14.38;;
33459;SDS011;19795;53.160;6.612;2023-02-18T07:48:41;17.75;;;13.20;;
33459;SDS011;19795;53.160;6.612;2023-02-18T07:51:08;22.15;;;14.27;;
33459;SDS011;19795;53.160;6.612;2023-02-18T07:53:35;23.75;;;14.52;;
33459;SDS011;19795;53.160;6.612;2023-02-18T07:56:07;23.83;;;14.30;;
33459;SDS011;19795;53.160;6.612;2023-02-18T07:58:35;22.23;;;14.02;;
33459;SDS011;19795;53.160;6.612;2023-02-18T08:01:08;19.38;;;13.52;;
33459;SDS011;19795;53.160;6.612;2023-02-18T08:06:02;19.70;;;13.18;;
33459;SDS011;19795;53.160;6.612;2023-02-18T08:08:29;20.95;;;12.75;;
33459;SDS011;19795;53.160;6.612;2023-02-18T08:10:57;18.35;;;12.43;;
33459;SDS011;19795;53.160;6.612;2023-02-18T08:13:25;15.52;;;11.20;;
33459;SDS011;19795;53.160;6.612;2023-02-18T08:15:53;21.00;;;11.27;;
33459;SDS011;19795;53.160;6.612;2023-02-18T08:18:20;12.60;;;9.18;;
33459;SDS011;19795;53.160;6.612;2023-02-18T08:20:47;14.73;;;9.13;;
33459;SDS011;19795;53.160;6.612;2023-02-18T08:23:14;15.60;;;8.55;;
33459;SDS011;19795;53.160;6.612;2023-02-18T08:25:44;19.05;;;8.05;;
33459;SDS011;19795;53.160;6.612;2023-02-18T08:28:11;14.55;;;7.15;;
33459;SDS011;19795;53.160;6.612;2023-02-18T08:30:37;13.15;;;6.30;;
33459;SDS011;19795;53.160;6.612;2023-02-18T08:33:02;15.82;;;6.53;;
33459;SDS011;19795;53.160;6.612;2023-02-18T08:35:28;11.77;;;5.50;;
33459;SDS011;19795;53.160;6.612;2023-02-18T08:37:53;14.80;;;6.10;;
33459;SDS011;19795;53.160;6.612;2023-02-18T08:40:19;13.70;;;5.63;;
33459;SDS011;19795;53.160;6.612;2023-02-18T08:42:45;13.07;;;5.32;;
33459;SDS011;19795;53.160;6.612;2023-02-18T08:45:10;12.75;;;5.38;;
33459;SDS011;19795;53.160;6.612;2023-02-18T08:47:36;9.60;;;5.38;;
33459;SDS011;19795;53.160;6.612;2023-02-18T08:50:02;13.57;;;5.22;;
33459;SDS011;19795;53.160;6.612;2023-02-18T08:52:28;12.27;;;5.40;;
33459;SDS011;19795;53.160;6.612;2023-02-18T08:54:55;12.23;;;5.07;;
33459;SDS011;19795;53.160;6.612;2023-02-18T08:57:20;10.38;;;5.32;;
33459;SDS011;19795;53.160;6.612;2023-02-18T08:59:46;10.90;;;5.60;;
33459;SDS011;19795;53.160;6.612;2023-02-18T09:02:12;10.48;;;4.93;;
33459;SDS011;19795;53.160;6.612;2023-02-18T09:04:38;11.07;;;5.18;;
33459;SDS011;19795;53.160;6.612;2023-02-18T09:07:04;12.35;;;5.28;;
33459;SDS011;19795;53.160;6.612;2023-02-18T09:09:30;10.30;;;4.72;;
33459;SDS011;19795;53.160;6.612;2023-02-18T09:11:56;10.48;;;4.68;;
33459;SDS011;19795;53.160;6.612;2023-02-18T09:14:22;8.82;;;3.85;;
33459;SDS011;19795;53.160;6.612;2023-02-18T09:16:48;7.60;;;3.83;;
33459;SDS011;19795;53.160;6.612;2023-02-18T09:19:14;8.65;;;3.92;;
33459;SDS011;19795;53.160;6.612;2023-02-18T09:21:41;6.70;;;3.38;;
33459;SDS011;19795;53.160;6.612;2023-02-18T09:24:06;11.52;;;4.15;;
33459;SDS011;19795;53.160;6.612;2023-02-18T09:26:32;9.32;;;4.20;;
33459;SDS011;19795;53.160;6.612;2023-02-18T09:28:57;8.48;;;3.95;;
33459;SDS011;19795;53.160;6.612;2023-02-18T09:31:25;10.55;;;3.92;;
33459;SDS011;19795;53.160;6.612;2023-02-18T09:34:01;11.75;;;4.57;;
33459;SDS011;19795;53.160;6.612;2023-02-18T09:36:27;11.35;;;4.38;;
33459;SDS011;19795;53.160;6.612;2023-02-18T09:38:53;8.95;;;3.85;;
33459;SDS011;19795;53.160;6.612;2023-02-18T09:43:51;11.10;;;3.78;;
33459;SDS011;19795;53.160;6.612;2023-02-18T09:46:24;11.20;;;3.97;;
33459;SDS011;19795;53.160;6.612;2023-02-18T09:48:54;11.73;;;4.38;;
33459;SDS011;19795;53.160;6.612;2023-02-18T09:51:21;9.00;;;3.55;;
33459;SDS011;19795;53.160;6.612;2023-02-18T09:53:47;9.77;;;3.25;;
33459;SDS011;19795;53.160;6.612;2023-02-18T09:56:13;9.48;;;3.25;;
33459;SDS011;19795;53.160;6.612;2023-02-18T09:58:56;6.90;;;3.20;;
33459;SDS011;19795;53.160;6.612;2023-02-18T10:01:26;9.27;;;3.05;;
33459;SDS011;19795;53.160;6.612;2023-02-18T10:04:43;10.05;;;3.40;;
33459;SDS011;19795;53.160;6.612;2023-02-18T10:06:56;9.13;;;2.63;;
33459;SDS011;19795;53.160;6.612;2023-02-18T10:09:26;10.75;;;3.53;;
33459;SDS011;19795;53.160;6.612;2023-02-18T10:12:14;10.90;;;3.25;;
33459;SDS011;19795;53.160;6.612;2023-02-18T10:14:42;11.48;;;2.80;;
33459;SDS011;19795;53.160;6.612;2023-02-18T10:17:12;14.85;;;3.40;;
33459;SDS011;19795;53.160;6.612;2023-02-18T10:19:41;12.63;;;3.13;;
33459;SDS011;19795;53.160;6.612;2023-02-18T10:22:10;9.48;;;3.13;;
33459;SDS011;19795;53.160;6.612;2023-02-18T10:27:25;10.02;;;3.55;;
33459;SDS011;19795;53.160;6.612;2023-02-18T10:34:52;13.32;;;3.20;;
33459;SDS011;19795;53.160;6.612;2023-02-18T10:51:17;12.73;;;3.15;;
33459;SDS011;19795;53.160;6.612;2023-02-18T10:54:04;14.70;;;2.65;;
33459;SDS011;19795;53.160;6.612;2023-02-18T10:56:39;13.23;;;2.70;;
33459;SDS011;19795;53.160;6.612;2023-02-18T11:06:39;12.27;;;2.53;;
33459;SDS011;19795;53.160;6.612;2023-02-18T11:09:12;13.20;;;2.92;;
33459;SDS011;19795;53.160;6.612;2023-02-18T11:11:45;10.82;;;3.08;;
33459;SDS011;19795;53.160;6.612;2023-02-18T11:14:12;14.90;;;3.80;;
33459;SDS011;19795;53.160;6.612;2023-02-18T11:16:43;11.23;;;2.50;;
33459;SDS011;19795;53.160;6.612;2023-02-18T11:24:37;10.18;;;2.40;;
33459;SDS011;19795;53.160;6.612;2023-02-18T11:27:09;6.75;;;2.13;;
33459;SDS011;19795;53.160;6.612;2023-02-18T11:29:37;11.75;;;2.20;;
33459;SDS011;19795;53.160;6.612;2023-02-18T11:32:03;8.82;;;1.92;;
33459;SDS011;19795;53.160;6.612;2023-02-18T11:34:34;11.55;;;2.47;;
33459;SDS011;19795;53.160;6.612;2023-02-18T11:37:08;8.52;;;2.13;;
33459;SDS011;19795;53.160;6.612;2023-02-18T11:39:37;11.70;;;2.13;;
33459;SDS011;19795;53.160;6.612;2023-02-18T11:42:10;10.80;;;2.40;;
33459;SDS011;19795;53.160;6.612;2023-02-18T11:44:39;10.15;;;1.83;;
33459;SDS011;19795;53.160;6.612;2023-02-18T11:49:38;10.30;;;2.55;;
33459;SDS011;19795;53.160;6.612;2023-02-18T11:52:16;10.02;;;1.95;;
33459;SDS011;19795;53.160;6.612;2023-02-18T11:58:04;9.50;;;2.42;;
33459;SDS011;19795;53.160;6.612;2023-02-18T12:06:04;8.23;;;2.05;;
33459;SDS011;19795;53.160;6.612;2023-02-18T12:11:52;11.18;;;2.50;;
33459;SDS011;19795;53.160;6.612;2023-02-18T12:14:40;13.27;;;2.05;;
33459;SDS011;19795;53.160;6.612;2023-02-18T12:33:47;9.57;;;1.75;;
33459;SDS011;19795;53.160;6.612;2023-02-18T12:39:10;9.90;;;2.05;;
33459;SDS011;19795;53.160;6.612;2023-02-18T12:44:12;11.07;;;2.05;;
33459;SDS011;19795;53.160;6.612;2023-02-18T13:01:02;13.90;;;2.03;;
33459;SDS011;19795;53.160;6.612;2023-02-18T13:03:50;11.10;;;2.08;;
33459;SDS011;19795;53.160;6.612;2023-02-18T13:12:13;12.88;;;2.25;;
33459;SDS011;19795;53.160;6.612;2023-02-18T13:14:50;10.20;;;2.00;;
33459;SDS011;19795;53.160;6.612;2023-02-18T13:17:26;8.80;;;1.73;;
33459;SDS011;19795;53.160;6.612;2023-02-18T13:23:01;11.98;;;2.08;;
33459;SDS011;19795;53.160;6.612;2023-02-18T13:25:27;14.35;;;2.50;;
33459;SDS011;19795;53.160;6.612;2023-02-18T13:28:02;8.57;;;1.83;;
33459;SDS011;19795;53.160;6.612;2023-02-18T13:30:42;15.90;;;2.08;;
33459;SDS011;19795;53.160;6.612;2023-02-18T13:36:16;14.77;;;3.28;;
33459;SDS011;19795;53.160;6.612;2023-02-18T13:41:33;7.47;;;1.67;;
33459;SDS011;19795;53.160;6.612;2023-02-18T13:44:05;8.30;;;1.38;;
33459;SDS011;19795;53.160;6.612;2023-02-18T13:46:50;6.57;;;1.10;;
33459;SDS011;19795;53.160;6.612;2023-02-18T13:49:21;12.77;;;1.80;;
33459;SDS011;19795;53.160;6.612;2023-02-18T13:51:49;10.05;;;1.90;;
33459;SDS011;19795;53.160;6.612;2023-02-18T13:54:27;14.35;;;2.05;;
33459;SDS011;19795;53.160;6.612;2023-02-18T13:57:01;11.60;;;1.95;;
33459;SDS011;19795;53.160;6.612;2023-02-18T13:59:39;15.55;;;2.05;;
33459;SDS011;19795;53.160;6.612;2023-02-18T14:18:30;14.52;;;1.90;;
33459;SDS011;19795;53.160;6.612;2023-02-18T14:31:29;14.05;;;1.83;;
33459;SDS011;19795;53.160;6.612;2023-02-18T14:36:39;11.20;;;1.65;;
33459;SDS011;19795;53.160;6.612;2023-02-18T14:39:32;11.32;;;1.90;;
33459;SDS011;19795;53.160;6.612;2023-02-18T14:47:57;14.52;;;2.08;;
33459;SDS011;19795;53.160;6.612;2023-02-18T14:50:29;7.18;;;1.23;;
33459;SDS011;19795;53.160;6.612;2023-02-18T14:52:58;14.57;;;1.92;;
33459;SDS011;19795;53.160;6.612;2023-02-18T14:55:32;8.57;;;1.95;;
33459;SDS011;19795;53.160;6.612;2023-02-18T14:58:07;13.45;;;2.30;;
33459;SDS011;19795;53.160;6.612;2023-02-18T15:00:42;12.23;;;2.00;;
33459;SDS011;19795;53.160;6.612;2023-02-18T15:03:11;12.50;;;2.63;;
33459;SDS011;19795;53.160;6.612;2023-02-18T15:05:39;11.70;;;2.08;;
33459;SDS011;19795;53.160;6.612;2023-02-18T15:08:06;14.90;;;2.20;;
33459;SDS011;19795;53.160;6.612;2023-02-18T15:10:40;18.17;;;2.35;;
33459;SDS011;19795;53.160;6.612;2023-02-18T15:13:37;18.52;;;2.35;;
33459;SDS011;19795;53.160;6.612;2023-02-18T15:16:14;13.23;;;1.77;;
33459;SDS011;19795;53.160;6.612;2023-02-18T15:19:07;13.45;;;2.15;;
33459;SDS011;19795;53.160;6.612;2023-02-18T15:21:38;15.77;;;2.42;;
33459;SDS011;19795;53.160;6.612;2023-02-18T15:24:07;9.73;;;2.13;;
33459;SDS011;19795;53.160;6.612;2023-02-18T15:26:48;14.43;;;2.20;;
33459;SDS011;19795;53.160;6.612;2023-02-18T15:29:23;15.10;;;2.20;;
33459;SDS011;19795;53.160;6.612;2023-02-18T15:31:52;8.35;;;1.35;;
33459;SDS011;19795;53.160;6.612;2023-02-18T15:36:53;13.13;;;1.90;;
33459;SDS011;19795;53.160;6.612;2023-02-18T15:39:19;12.52;;;1.88;;
33459;SDS011;19795;53.160;6.612;2023-02-18T15:41:46;19.52;;;2.85;;
33459;SDS011;19795;53.160;6.612;2023-02-18T15:44:17;16.95;;;2.72;;
33459;SDS011;19795;53.160;6.612;2023-02-18T15:46:47;10.93;;;2.13;;
33459;SDS011;19795;53.160;6.612;2023-02-18T15:49:13;12.10;;;1.63;;
33459;SDS011;19795;53.160;6.612;2023-02-18T15:51:42;12.80;;;2.58;;
33459;SDS011;19795;53.160;6.612;2023-02-18T15:54:16;17.27;;;1.98;;
33459;SDS011;19795;53.160;6.612;2023-02-18T15:56:44;16.17;;;2.30;;
33459;SDS011;19795;53.160;6.612;2023-02-18T15:59:17;21.60;;;3.00;;
33459;SDS011;19795;53.160;6.612;2023-02-18T16:01:52;21.23;;;2.97;;
33459;SDS011;19795;53.160;6.612;2023-02-18T16:04:21;14.45;;;2.13;;
33459;SDS011;19795;53.160;6.612;2023-02-18T16:06:49;17.30;;;2.03;;
33459;SDS011;19795;53.160;6.612;2023-02-18T16:09:26;22.83;;;2.80;;
33459;SDS011;19795;53.160;6.612;2023-02-18T16:11:57;21.77;;;2.67;;
33459;SDS011;19795;53.160;6.612;2023-02-18T16:14:34;13.52;;;2.20;;
33459;SDS011;19795;53.160;6.612;2023-02-18T16:22:26;12.85;;;2.13;;
33459;SDS011;19795;53.160;6.612;2023-02-18T16:27:45;15.27;;;1.92;;
33459;SDS011;19795;53.160;6.612;2023-02-18T16:30:15;17.10;;;2.58;;
33459;SDS011;19795;53.160;6.612;2023-02-18T16:32:53;19.65;;;2.67;;
33459;SDS011;19795;53.160;6.612;2023-02-18T16:35:20;12.48;;;2.30;;
33459;SDS011;19795;53.160;6.612;2023-02-18T16:37:47;13.80;;;2.30;;
33459;SDS011;19795;53.160;6.612;2023-02-18T16:42:45;17.67;;;3.15;;
33459;SDS011;19795;53.160;6.612;2023-02-18T16:45:11;16.88;;;2.35;;
33459;SDS011;19795;53.160;6.612;2023-02-18T16:47:37;16.75;;;2.90;;
33459;SDS011;19795;53.160;6.612;2023-02-18T16:50:03;21.02;;;2.85;;
33459;SDS011;19795;53.160;6.612;2023-02-18T16:52:29;16.88;;;2.75;;
33459;SDS011;19795;53.160;6.612;2023-02-18T16:54:55;19.38;;;3.03;;
33459;SDS011;19795;53.160;6.612;2023-02-18T16:57:21;20.30;;;3.25;;
33459;SDS011;19795;53.160;6.612;2023-02-18T16:59:46;14.98;;;2.55;;
33459;SDS011;19795;53.160;6.612;2023-02-18T17:02:17;14.20;;;2.92;;
33459;SDS011;19795;53.160;6.612;2023-02-18T17:04:45;19.63;;;3.10;;
33459;SDS011;19795;53.160;6.612;2023-02-18T17:07:10;23.83;;;2.80;;
33459;SDS011;19795;53.160;6.612;2023-02-18T17:09:36;18.75;;;2.72;;
33459;SDS011;19795;53.160;6.612;2023-02-18T17:12:02;15.73;;;2.13;;
33459;SDS011;19795;53.160;6.612;2023-02-18T17:14:28;20.65;;;3.20;;
33459;SDS011;19795;53.160;6.612;2023-02-18T17:16:53;18.70;;;2.42;;
33459;SDS011;19795;53.160;6.612;2023-02-18T17:19:19;16.60;;;2.85;;
33459;SDS011;19795;53.160;6.612;2023-02-18T17:21:45;21.35;;;3.97;;
33459;SDS011;19795;53.160;6.612;2023-02-18T17:24:12;15.50;;;2.75;;
33459;SDS011;19795;53.160;6.612;2023-02-18T17:26:38;13.48;;;2.65;;
33459;SDS011;19795;53.160;6.612;2023-02-18T17:29:05;14.75;;;2.80;;
33459;SDS011;19795;53.160;6.612;2023-02-18T17:31:35;15.85;;;3.33;;
33459;SDS011;19795;53.160;6.612;2023-02-18T17:34:04;16.13;;;2.70;;
33459;SDS011;19795;53.160;6.612;2023-02-18T17:36:31;18.05;;;2.85;;
33459;SDS011;19795;53.160;6.612;2023-02-18T17:38:57;16.48;;;2.80;;
33459;SDS011;19795;53.160;6.612;2023-02-18T17:41:23;16.00;;;2.67;;
33459;SDS011;19795;53.160;6.612;2023-02-18T17:43:49;16.83;;;2.80;;
33459;SDS011;19795;53.160;6.612;2023-02-18T17:46:16;20.60;;;3.10;;
33459;SDS011;19795;53.160;6.612;2023-02-18T17:48:43;13.77;;;2.88;;
33459;SDS011;19795;53.160;6.612;2023-02-18T17:51:21;21.45;;;2.92;;
33459;SDS011;19795;53.160;6.612;2023-02-18T17:53:48;23.67;;;3.30;;
33459;SDS011;19795;53.160;6.612;2023-02-18T17:56:14;14.65;;;2.80;;
33459;SDS011;19795;53.160;6.612;2023-02-18T17:58:40;20.90;;;3.28;;
33459;SDS011;19795;53.160;6.612;2023-02-18T18:01:08;20.05;;;3.08;;
33459;SDS011;19795;53.160;6.612;2023-02-18T18:03:34;18.67;;;3.08;;
33459;SDS011;19795;53.160;6.612;2023-02-18T18:05:59;22.00;;;3.03;;
33459;SDS011;19795;53.160;6.612;2023-02-18T18:08:28;16.33;;;2.65;;
33459;SDS011;19795;53.160;6.612;2023-02-18T18:10:55;16.42;;;2.78;;
33459;SDS011;19795;53.160;6.612;2023-02-18T18:13:24;22.48;;;3.08;;
33459;SDS011;19795;53.160;6.612;2023-02-18T18:15:51;16.20;;;2.88;;
33459;SDS011;19795;53.160;6.612;2023-02-18T18:18:17;22.70;;;3.28;;
33459;SDS011;19795;53.160;6.612;2023-02-18T18:20:47;24.02;;;3.42;;
33459;SDS011;19795;53.160;6.612;2023-02-18T18:23:20;19.40;;;3.03;;
33459;SDS011;19795;53.160;6.612;2023-02-18T18:25:47;21.30;;;3.13;;
33459;SDS011;19795;53.160;6.612;2023-02-18T18:28:17;19.85;;;3.42;;
33459;SDS011;19795;53.160;6.612;2023-02-18T18:30:44;18.88;;;2.90;;
33459;SDS011;19795;53.160;6.612;2023-02-18T18:33:15;18.95;;;2.70;;
33459;SDS011;19795;53.160;6.612;2023-02-18T18:35:41;21.98;;;3.10;;
33459;SDS011;19795;53.160;6.612;2023-02-18T18:38:10;21.58;;;3.00;;
33459;SDS011;19795;53.160;6.612;2023-02-18T18:40:36;20.10;;;3.03;;
33459;SDS011;19795;53.160;6.612;2023-02-18T18:43:02;26.88;;;3.08;;
33459;SDS011;19795;53.160;6.612;2023-02-18T18:45:30;19.73;;;2.97;;
33459;SDS011;19795;53.160;6.612;2023-02-18T18:48:03;16.15;;;2.30;;
33459;SDS011;19795;53.160;6.612;2023-02-18T18:50:29;15.45;;;2.70;;
33459;SDS011;19795;53.160;6.612;2023-02-18T18:52:55;22.73;;;3.42;;
33459;SDS011;19795;53.160;6.612;2023-02-18T18:55:28;18.02;;;2.85;;
33459;SDS011;19795;53.160;6.612;2023-02-18T18:57:54;18.02;;;2.90;;
33459;SDS011;19795;53.160;6.612;2023-02-18T19:00:31;26.90;;;3.55;;
33459;SDS011;19795;53.160;6.612;2023-02-18T19:02:59;19.10;;;3.28;;
33459;SDS011;19795;53.160;6.612;2023-02-18T19:08:02;22.92;;;3.35;;
33459;SDS011;19795;53.160;6.612;2023-02-18T19:10:30;17.05;;;3.25;;
33459;SDS011;19795;53.160;6.612;2023-02-18T19:13:11;18.25;;;3.25;;
33459;SDS011;19795;53.160;6.612;2023-02-18T19:15:40;20.75;;;3.10;;
33459;SDS011;19795;53.160;6.612;2023-02-18T19:18:06;18.48;;;3.03;;
33459;SDS011;19795;53.160;6.612;2023-02-18T19:20:34;18.98;;;3.30;;
33459;SDS011;19795;53.160;6.612;2023-02-18T19:23:01;17.33;;;3.38;;
33459;SDS011;19795;53.160;6.612;2023-02-18T19:25:27;22.08;;;3.80;;
33459;SDS011;19795;53.160;6.612;2023-02-18T19:27:52;26.35;;;3.83;;
33459;SDS011;19795;53.160;6.612;2023-02-18T19:30:19;23.20;;;3.30;;
33459;SDS011;19795;53.160;6.612;2023-02-18T19:32:51;21.30;;;3.17;;
33459;SDS011;19795;53.160;6.612;2023-02-18T19:35:18;19.38;;;3.30;;
33459;SDS011;19795;53.160;6.612;2023-02-18T19:37:44;16.45;;;3.30;;
33459;SDS011;19795;53.160;6.612;2023-02-18T19:40:11;20.60;;;3.17;;
33459;SDS011;19795;53.160;6.612;2023-02-18T19:42:39;18.92;;;3.47;;
33459;SDS011;19795;53.160;6.612;2023-02-18T19:45:05;19.02;;;3.33;;
33459;SDS011;19795;53.160;6.612;2023-02-18T19:47:31;19.73;;;3.50;;
33459;SDS011;19795;53.160;6.612;2023-02-18T19:49:58;22.20;;;3.53;;
33459;SDS011;19795;53.160;6.612;2023-02-18T19:52:24;19.20;;;3.30;;
33459;SDS011;19795;53.160;6.612;2023-02-18T19:54:50;18.42;;;4.15;;
33459;SDS011;19795;53.160;6.612;2023-02-18T19:57:16;20.30;;;3.90;;
33459;SDS011;19795;53.160;6.612;2023-02-18T19:59:42;16.80;;;3.45;;
33459;SDS011;19795;53.160;6.612;2023-02-18T20:02:11;17.17;;;3.80;;
33459;SDS011;19795;53.160;6.612;2023-02-18T20:04:41;21.60;;;3.80;;
33459;SDS011;19795;53.160;6.612;2023-02-18T20:07:07;16.02;;;3.60;;
33459;SDS011;19795;53.160;6.612;2023-02-18T20:09:33;23.42;;;4.80;;
33459;SDS011;19795;53.160;6.612;2023-02-18T20:11:59;22.52;;;4.30;;
33459;SDS011;19795;53.160;6.612;2023-02-18T20:14:25;18.30;;;4.50;;
33459;SDS011;19795;53.160;6.612;2023-02-18T20:16:52;23.25;;;4.35;;
33459;SDS011;19795;53.160;6.612;2023-02-18T20:19:18;19.45;;;4.40;;
33459;SDS011;19795;53.160;6.612;2023-02-18T20:21:47;17.90;;;4.18;;
33459;SDS011;19795;53.160;6.612;2023-02-18T20:24:14;19.63;;;4.40;;
33459;SDS011;19795;53.160;6.612;2023-02-18T20:26:39;19.90;;;4.57;;
